sensor_id;sensor_type;location;lat;lon;timestamp;P1;durP1;ratioP1;P2;durP2;ratioP2
23608;SDS011;11982;50.810;4.442;2022-09-13T00:00:15;7.28;;;3.67;;
23608;SDS011;11982;50.810;4.442;2022-09-13T00:02:41;9.35;;;4.43;;
23608;SDS011;11982;50.810;4.442;2022-09-13T00:05:06;10.57;;;4.00;;
23608;SDS011;11982;50.810;4.442;2022-09-13T00:07:32;13.60;;;4.30;;
23608;SDS011;11982;50.810;4.442;2022-09-13T00:09:58;9.35;;;4.00;;
23608;SDS011;11982;50.810;4.442;2022-09-13T00:12:23;6.90;;;4.40;;
23608;SDS011;11982;50.810;4.442;2022-09-13T00:14:49;9.90;;;4.07;;
23608;SDS011;11982;50.810;4.442;2022-09-13T00:17:15;9.88;;;3.75;;
23608;SDS011;11982;50.810;4.442;2022-09-13T00:19:41;14.20;;;4.22;;
23608;SDS011;11982;50.810;4.442;2022-09-13T00:22:06;10.85;;;4.20;;
23608;SDS011;11982;50.810;4.442;2022-09-13T00:24:32;12.05;;;4.28;;
23608;SDS011;11982;50.810;4.442;2022-09-13T00:26:59;10.15;;;4.15;;
23608;SDS011;11982;50.810;4.442;2022-09-13T00:29:25;8.38;;;3.80;;
23608;SDS011;11982;50.810;4.442;2022-09-13T00:31:51;11.52;;;4.00;;
23608;SDS011;11982;50.810;4.442;2022-09-13T00:34:17;12.18;;;3.53;;
23608;SDS011;11982;50.810;4.442;2022-09-13T00:36:43;10.00;;;3.65;;
23608;SDS011;11982;50.810;4.442;2022-09-13T00:39:09;10.13;;;3.95;;
23608;SDS011;11982;50.810;4.442;2022-09-13T00:41:35;6.57;;;3.70;;
23608;SDS011;11982;50.810;4.442;2022-09-13T00:44:02;11.40;;;4.00;;
23608;SDS011;11982;50.810;4.442;2022-09-13T00:51:41;14.55;;;4.55;;
23608;SDS011;11982;50.810;4.442;2022-09-13T00:54:22;11.07;;;3.80;;
23608;SDS011;11982;50.810;4.442;2022-09-13T00:56:54;6.47;;;3.75;;
23608;SDS011;11982;50.810;4.442;2022-09-13T00:59:27;14.32;;;4.13;;
23608;SDS011;11982;50.810;4.442;2022-09-13T01:01:56;13.43;;;4.00;;
23608;SDS011;11982;50.810;4.442;2022-09-13T01:04:24;7.15;;;4.35;;
23608;SDS011;11982;50.810;4.442;2022-09-13T01:06:53;12.18;;;4.10;;
23608;SDS011;11982;50.810;4.442;2022-09-13T01:09:23;10.40;;;3.60;;
23608;SDS011;11982;50.810;4.442;2022-09-13T01:11:51;9.35;;;3.72;;
23608;SDS011;11982;50.810;4.442;2022-09-13T01:14:23;6.75;;;4.05;;
23608;SDS011;11982;50.810;4.442;2022-09-13T01:16:49;9.95;;;3.80;;
23608;SDS011;11982;50.810;4.442;2022-09-13T01:19:17;10.85;;;3.92;;
23608;SDS011;11982;50.810;4.442;2022-09-13T01:33:10;5.65;;;3.40;;
23608;SDS011;11982;50.810;4.442;2022-09-13T01:44:09;14.25;;;4.28;;
23608;SDS011;11982;50.810;4.442;2022-09-13T01:52:35;5.40;;;3.38;;
23608;SDS011;11982;50.810;4.442;2022-09-13T01:55:15;7.60;;;3.53;;
23608;SDS011;11982;50.810;4.442;2022-09-13T02:00:54;16.25;;;4.18;;
23608;SDS011;11982;50.810;4.442;2022-09-13T02:03:57;9.88;;;3.67;;
23608;SDS011;11982;50.810;4.442;2022-09-13T02:06:48;16.85;;;3.95;;
23608;SDS011;11982;50.810;4.442;2022-09-13T02:09:21;8.38;;;4.03;;
23608;SDS011;11982;50.810;4.442;2022-09-13T02:11:53;7.28;;;4.18;;
23608;SDS011;11982;50.810;4.442;2022-09-13T02:14:26;5.05;;;3.38;;
23608;SDS011;11982;50.810;4.442;2022-09-13T02:16:58;11.25;;;3.78;;
23608;SDS011;11982;50.810;4.442;2022-09-13T02:19:50;8.70;;;3.55;;
23608;SDS011;11982;50.810;4.442;2022-09-13T02:22:26;10.27;;;3.65;;
23608;SDS011;11982;50.810;4.442;2022-09-13T02:24:56;6.85;;;3.72;;
23608;SDS011;11982;50.810;4.442;2022-09-13T02:27:30;8.27;;;3.97;;
23608;SDS011;11982;50.810;4.442;2022-09-13T02:30:00;6.15;;;3.75;;
23608;SDS011;11982;50.810;4.442;2022-09-13T02:32:38;7.80;;;4.03;;
23608;SDS011;11982;50.810;4.442;2022-09-13T02:37:49;7.38;;;3.58;;
23608;SDS011;11982;50.810;4.442;2022-09-13T02:40:21;8.18;;;3.85;;
23608;SDS011;11982;50.810;4.442;2022-09-13T02:42:56;10.25;;;4.25;;
23608;SDS011;11982;50.810;4.442;2022-09-13T02:45:32;6.05;;;4.07;;
23608;SDS011;11982;50.810;4.442;2022-09-13T03:01:11;6.00;;;4.10;;
23608;SDS011;11982;50.810;4.442;2022-09-13T03:03:38;7.90;;;4.30;;
23608;SDS011;11982;50.810;4.442;2022-09-13T03:06:04;5.20;;;3.72;;
23608;SDS011;11982;50.810;4.442;2022-09-13T03:08:30;10.10;;;3.80;;
23608;SDS011;11982;50.810;4.442;2022-09-13T03:10:59;7.20;;;3.78;;
23608;SDS011;11982;50.810;4.442;2022-09-13T03:13:47;6.18;;;3.75;;
23608;SDS011;11982;50.810;4.442;2022-09-13T03:16:38;7.78;;;4.50;;
23608;SDS011;11982;50.810;4.442;2022-09-13T03:19:33;6.82;;;4.47;;
23608;SDS011;11982;50.810;4.442;2022-09-13T03:27:37;11.88;;;4.18;;
23608;SDS011;11982;50.810;4.442;2022-09-13T03:30:14;10.82;;;4.13;;
23608;SDS011;11982;50.810;4.442;2022-09-13T03:32:45;7.82;;;4.25;;
23608;SDS011;11982;50.810;4.442;2022-09-13T03:35:25;7.47;;;4.00;;
23608;SDS011;11982;50.810;4.442;2022-09-13T03:41:18;4.93;;;4.32;;
23608;SDS011;11982;50.810;4.442;2022-09-13T03:43:49;7.07;;;4.22;;
23608;SDS011;11982;50.810;4.442;2022-09-13T03:46:24;9.48;;;4.22;;
23608;SDS011;11982;50.810;4.442;2022-09-13T03:48:54;5.80;;;4.32;;
23608;SDS011;11982;50.810;4.442;2022-09-13T03:51:22;5.57;;;4.18;;
23608;SDS011;11982;50.810;4.442;2022-09-13T03:53:51;4.55;;;4.05;;
23608;SDS011;11982;50.810;4.442;2022-09-13T03:56:20;8.55;;;4.07;;
23608;SDS011;11982;50.810;4.442;2022-09-13T03:58:47;5.80;;;4.18;;
23608;SDS011;11982;50.810;4.442;2022-09-13T04:01:13;9.38;;;4.72;;
23608;SDS011;11982;50.810;4.442;2022-09-13T04:03:44;7.63;;;4.03;;
23608;SDS011;11982;50.810;4.442;2022-09-13T04:06:09;5.50;;;3.90;;
23608;SDS011;11982;50.810;4.442;2022-09-13T04:08:35;7.57;;;3.97;;
23608;SDS011;11982;50.810;4.442;2022-09-13T04:11:01;7.85;;;3.92;;
23608;SDS011;11982;50.810;4.442;2022-09-13T04:13:26;9.50;;;4.05;;
23608;SDS011;11982;50.810;4.442;2022-09-13T04:15:52;11.63;;;4.10;;
23608;SDS011;11982;50.810;4.442;2022-09-13T04:18:18;8.23;;;4.45;;
23608;SDS011;11982;50.810;4.442;2022-09-13T04:20:44;8.00;;;3.75;;
23608;SDS011;11982;50.810;4.442;2022-09-13T04:23:21;7.70;;;3.58;;
23608;SDS011;11982;50.810;4.442;2022-09-13T04:25:47;6.68;;;4.10;;
23608;SDS011;11982;50.810;4.442;2022-09-13T04:28:13;5.95;;;4.18;;
23608;SDS011;11982;50.810;4.442;2022-09-13T04:30:42;6.95;;;3.60;;
23608;SDS011;11982;50.810;4.442;2022-09-13T04:33:09;8.68;;;4.03;;
23608;SDS011;11982;50.810;4.442;2022-09-13T04:35:34;8.55;;;4.28;;
23608;SDS011;11982;50.810;4.442;2022-09-13T04:38:00;9.13;;;4.38;;
23608;SDS011;11982;50.810;4.442;2022-09-13T04:40:25;7.70;;;4.18;;
23608;SDS011;11982;50.810;4.442;2022-09-13T04:42:51;8.32;;;3.90;;
23608;SDS011;11982;50.810;4.442;2022-09-13T04:45:17;10.85;;;4.22;;
23608;SDS011;11982;50.810;4.442;2022-09-13T04:47:42;7.60;;;3.95;;
23608;SDS011;11982;50.810;4.442;2022-09-13T04:50:08;6.25;;;3.88;;
23608;SDS011;11982;50.810;4.442;2022-09-13T04:52:34;4.20;;;3.85;;
23608;SDS011;11982;50.810;4.442;2022-09-13T04:54:59;6.55;;;4.10;;
23608;SDS011;11982;50.810;4.442;2022-09-13T04:57:29;6.00;;;4.07;;
23608;SDS011;11982;50.810;4.442;2022-09-13T04:59:54;5.40;;;4.28;;
23608;SDS011;11982;50.810;4.442;2022-09-13T05:02:20;8.85;;;4.47;;
23608;SDS011;11982;50.810;4.442;2022-09-13T05:04:46;8.10;;;4.18;;
23608;SDS011;11982;50.810;4.442;2022-09-13T05:07:11;10.63;;;4.55;;
23608;SDS011;11982;50.810;4.442;2022-09-13T05:09:37;11.43;;;5.40;;
23608;SDS011;11982;50.810;4.442;2022-09-13T05:12:03;14.40;;;5.00;;
23608;SDS011;11982;50.810;4.442;2022-09-13T05:14:29;9.95;;;4.85;;
23608;SDS011;11982;50.810;4.442;2022-09-13T05:16:55;7.47;;;4.55;;
23608;SDS011;11982;50.810;4.442;2022-09-13T05:19:20;6.20;;;4.90;;
23608;SDS011;11982;50.810;4.442;2022-09-13T05:21:46;9.88;;;4.32;;
23608;SDS011;11982;50.810;4.442;2022-09-13T05:24:11;8.60;;;4.72;;
23608;SDS011;11982;50.810;4.442;2022-09-13T05:26:37;17.35;;;5.47;;
23608;SDS011;11982;50.810;4.442;2022-09-13T05:29:03;6.65;;;4.85;;
23608;SDS011;11982;50.810;4.442;2022-09-13T05:31:30;8.15;;;4.80;;
23608;SDS011;11982;50.810;4.442;2022-09-13T05:33:58;7.55;;;4.90;;
23608;SDS011;11982;50.810;4.442;2022-09-13T05:36:36;10.10;;;4.95;;
23608;SDS011;11982;50.810;4.442;2022-09-13T05:39:02;12.70;;;4.90;;
23608;SDS011;11982;50.810;4.442;2022-09-13T05:41:29;8.18;;;5.22;;
23608;SDS011;11982;50.810;4.442;2022-09-13T05:43:54;9.68;;;5.22;;
23608;SDS011;11982;50.810;4.442;2022-09-13T05:46:21;14.98;;;5.80;;
23608;SDS011;11982;50.810;4.442;2022-09-13T05:48:47;11.55;;;5.00;;
23608;SDS011;11982;50.810;4.442;2022-09-13T05:51:20;137.82;;;16.70;;
23608;SDS011;11982;50.810;4.442;2022-09-13T05:53:48;184.25;;;20.05;;
23608;SDS011;11982;50.810;4.442;2022-09-13T05:56:16;237.25;;;23.50;;
23608;SDS011;11982;50.810;4.442;2022-09-13T05:58:46;134.38;;;15.85;;
23608;SDS011;11982;50.810;4.442;2022-09-13T06:01:13;34.22;;;7.60;;
23608;SDS011;11982;50.810;4.442;2022-09-13T06:03:47;42.08;;;7.80;;
23608;SDS011;11982;50.810;4.442;2022-09-13T06:06:13;173.40;;;17.73;;
23608;SDS011;11982;50.810;4.442;2022-09-13T06:08:40;441.35;;;41.92;;
23608;SDS011;11982;50.810;4.442;2022-09-13T06:11:07;517.10;;;53.85;;
23608;SDS011;11982;50.810;4.442;2022-09-13T06:13:34;299.17;;;32.70;;
23608;SDS011;11982;50.810;4.442;2022-09-13T06:16:00;296.90;;;28.30;;
23608;SDS011;11982;50.810;4.442;2022-09-13T06:18:29;164.27;;;18.67;;
23608;SDS011;11982;50.810;4.442;2022-09-13T06:21:02;110.20;;;14.55;;
23608;SDS011;11982;50.810;4.442;2022-09-13T06:23:30;161.90;;;16.58;;
23608;SDS011;11982;50.810;4.442;2022-09-13T06:26:03;105.50;;;13.10;;
23608;SDS011;11982;50.810;4.442;2022-09-13T06:28:29;66.93;;;10.38;;
23608;SDS011;11982;50.810;4.442;2022-09-13T06:30:58;50.88;;;8.88;;
23608;SDS011;11982;50.810;4.442;2022-09-13T06:33:25;18.50;;;6.18;;
23608;SDS011;11982;50.810;4.442;2022-09-13T06:35:51;10.82;;;5.80;;
23608;SDS011;11982;50.810;4.442;2022-09-13T06:38:17;9.63;;;5.68;;
23608;SDS011;11982;50.810;4.442;2022-09-13T06:40:42;54.83;;;9.05;;
23608;SDS011;11982;50.810;4.442;2022-09-13T06:43:08;81.43;;;11.95;;
23608;SDS011;11982;50.810;4.442;2022-09-13T06:45:35;30.17;;;7.70;;
23608;SDS011;11982;50.810;4.442;2022-09-13T06:48:01;24.23;;;6.50;;
23608;SDS011;11982;50.810;4.442;2022-09-13T06:50:28;25.60;;;6.22;;
23608;SDS011;11982;50.810;4.442;2022-09-13T06:52:56;38.53;;;7.05;;
23608;SDS011;11982;50.810;4.442;2022-09-13T06:55:22;16.67;;;5.57;;
23608;SDS011;11982;50.810;4.442;2022-09-13T06:57:47;13.55;;;5.07;;
23608;SDS011;11982;50.810;4.442;2022-09-13T07:00:14;10.20;;;5.05;;
23608;SDS011;11982;50.810;4.442;2022-09-13T07:02:39;12.80;;;5.10;;
23608;SDS011;11982;50.810;4.442;2022-09-13T07:05:05;12.98;;;5.80;;
23608;SDS011;11982;50.810;4.442;2022-09-13T07:07:31;26.17;;;5.22;;
23608;SDS011;11982;50.810;4.442;2022-09-13T07:09:57;31.33;;;5.68;;
23608;SDS011;11982;50.810;4.442;2022-09-13T07:12:24;17.35;;;4.90;;
23608;SDS011;11982;50.810;4.442;2022-09-13T07:14:50;8.55;;;4.18;;
23608;SDS011;11982;50.810;4.442;2022-09-13T07:17:16;14.23;;;4.75;;
23608;SDS011;11982;50.810;4.442;2022-09-13T07:19:41;17.80;;;5.07;;
23608;SDS011;11982;50.810;4.442;2022-09-13T07:22:07;11.02;;;5.03;;
23608;SDS011;11982;50.810;4.442;2022-09-13T07:24:32;13.32;;;5.20;;
23608;SDS011;11982;50.810;4.442;2022-09-13T07:26:58;11.07;;;4.00;;
23608;SDS011;11982;50.810;4.442;2022-09-13T07:29:24;6.80;;;3.88;;
23608;SDS011;11982;50.810;4.442;2022-09-13T07:31:50;7.82;;;4.10;;
23608;SDS011;11982;50.810;4.442;2022-09-13T07:34:19;5.55;;;3.28;;
23608;SDS011;11982;50.810;4.442;2022-09-13T07:36:46;5.60;;;3.97;;
23608;SDS011;11982;50.810;4.442;2022-09-13T07:39:13;12.38;;;3.50;;
23608;SDS011;11982;50.810;4.442;2022-09-13T07:41:39;8.13;;;3.80;;
23608;SDS011;11982;50.810;4.442;2022-09-13T07:44:05;7.60;;;4.55;;
23608;SDS011;11982;50.810;4.442;2022-09-13T07:46:32;10.57;;;4.10;;
23608;SDS011;11982;50.810;4.442;2022-09-13T07:49:03;7.45;;;3.90;;
23608;SDS011;11982;50.810;4.442;2022-09-13T07:51:31;9.43;;;3.65;;
23608;SDS011;11982;50.810;4.442;2022-09-13T07:53:58;9.50;;;3.53;;
23608;SDS011;11982;50.810;4.442;2022-09-13T07:56:29;6.43;;;3.33;;
23608;SDS011;11982;50.810;4.442;2022-09-13T07:58:59;5.72;;;3.63;;
23608;SDS011;11982;50.810;4.442;2022-09-13T08:01:27;9.48;;;3.70;;
23608;SDS011;11982;50.810;4.442;2022-09-13T08:03:58;9.13;;;3.80;;
23608;SDS011;11982;50.810;4.442;2022-09-13T08:06:26;6.38;;;3.33;;
23608;SDS011;11982;50.810;4.442;2022-09-13T08:08:53;6.38;;;3.15;;
23608;SDS011;11982;50.810;4.442;2022-09-13T08:11:21;6.28;;;3.10;;
23608;SDS011;11982;50.810;4.442;2022-09-13T08:13:51;6.05;;;3.10;;
23608;SDS011;11982;50.810;4.442;2022-09-13T08:16:18;11.10;;;3.45;;
23608;SDS011;11982;50.810;4.442;2022-09-13T08:18:49;4.38;;;2.78;;
23608;SDS011;11982;50.810;4.442;2022-09-13T08:21:15;9.85;;;2.83;;
23608;SDS011;11982;50.810;4.442;2022-09-13T08:23:42;7.78;;;3.00;;
23608;SDS011;11982;50.810;4.442;2022-09-13T08:26:08;8.40;;;2.72;;
23608;SDS011;11982;50.810;4.442;2022-09-13T08:28:35;7.53;;;3.05;;
23608;SDS011;11982;50.810;4.442;2022-09-13T08:31:08;8.95;;;3.22;;
23608;SDS011;11982;50.810;4.442;2022-09-13T08:33:36;6.18;;;2.95;;
23608;SDS011;11982;50.810;4.442;2022-09-13T08:36:02;4.63;;;3.25;;
23608;SDS011;11982;50.810;4.442;2022-09-13T08:38:29;8.23;;;3.45;;
23608;SDS011;11982;50.810;4.442;2022-09-13T08:40:57;6.43;;;3.60;;
23608;SDS011;11982;50.810;4.442;2022-09-13T08:48:47;9.05;;;3.60;;
23608;SDS011;11982;50.810;4.442;2022-09-13T08:56:30;12.95;;;4.13;;
23608;SDS011;11982;50.810;4.442;2022-09-13T09:01:55;9.48;;;3.30;;
23608;SDS011;11982;50.810;4.442;2022-09-13T09:04:45;11.18;;;3.17;;
23608;SDS011;11982;50.810;4.442;2022-09-13T09:07:18;7.40;;;3.83;;
23608;SDS011;11982;50.810;4.442;2022-09-13T09:09:51;8.48;;;3.42;;
23608;SDS011;11982;50.810;4.442;2022-09-13T09:12:31;11.77;;;4.22;;
23608;SDS011;11982;50.810;4.442;2022-09-13T09:15:03;9.40;;;4.68;;
23608;SDS011;11982;50.810;4.442;2022-09-13T09:17:57;14.35;;;4.78;;
23608;SDS011;11982;50.810;4.442;2022-09-13T09:20:27;10.05;;;4.25;;
23608;SDS011;11982;50.810;4.442;2022-09-13T09:22:57;17.17;;;5.00;;
23608;SDS011;11982;50.810;4.442;2022-09-13T09:25:26;14.05;;;4.63;;
23608;SDS011;11982;50.810;4.442;2022-09-13T09:27:52;10.48;;;4.68;;
23608;SDS011;11982;50.810;4.442;2022-09-13T09:30:18;13.43;;;4.55;;
23608;SDS011;11982;50.810;4.442;2022-09-13T09:41:03;11.48;;;5.00;;
23608;SDS011;11982;50.810;4.442;2022-09-13T09:43:36;10.90;;;5.00;;
23608;SDS011;11982;50.810;4.442;2022-09-13T09:46:06;14.23;;;4.78;;
23608;SDS011;11982;50.810;4.442;2022-09-13T09:48:39;13.15;;;4.63;;
23608;SDS011;11982;50.810;4.442;2022-09-13T09:53:38;14.88;;;6.10;;
23608;SDS011;11982;50.810;4.442;2022-09-13T09:56:19;12.18;;;7.15;;
23608;SDS011;11982;50.810;4.442;2022-09-13T09:58:50;12.65;;;5.95;;
23608;SDS011;11982;50.810;4.442;2022-09-13T10:01:39;11.27;;;5.78;;
23608;SDS011;11982;50.810;4.442;2022-09-13T10:04:06;13.55;;;4.72;;
23608;SDS011;11982;50.810;4.442;2022-09-13T10:06:46;7.65;;;4.38;;
23608;SDS011;11982;50.810;4.442;2022-09-13T10:09:19;10.25;;;4.40;;
23608;SDS011;11982;50.810;4.442;2022-09-13T10:11:50;8.27;;;4.55;;
23608;SDS011;11982;50.810;4.442;2022-09-13T10:14:34;11.23;;;4.30;;
23608;SDS011;11982;50.810;4.442;2022-09-13T10:19:30;10.43;;;4.55;;
23608;SDS011;11982;50.810;4.442;2022-09-13T10:22:03;16.98;;;4.72;;
23608;SDS011;11982;50.810;4.442;2022-09-13T10:24:34;7.82;;;3.83;;
23608;SDS011;11982;50.810;4.442;2022-09-13T10:26:59;7.45;;;3.83;;
23608;SDS011;11982;50.810;4.442;2022-09-13T10:29:28;10.57;;;3.78;;
23608;SDS011;11982;50.810;4.442;2022-09-13T10:31:55;7.13;;;3.35;;
23608;SDS011;11982;50.810;4.442;2022-09-13T10:34:31;9.77;;;3.60;;
23608;SDS011;11982;50.810;4.442;2022-09-13T10:37:00;10.68;;;3.60;;
23608;SDS011;11982;50.810;4.442;2022-09-13T10:39:36;8.65;;;3.17;;
23608;SDS011;11982;50.810;4.442;2022-09-13T10:42:19;9.00;;;3.50;;
23608;SDS011;11982;50.810;4.442;2022-09-13T10:47:31;15.85;;;3.70;;
23608;SDS011;11982;50.810;4.442;2022-09-13T10:50:34;10.30;;;3.47;;
23608;SDS011;11982;50.810;4.442;2022-09-13T10:52:56;14.15;;;4.07;;
23608;SDS011;11982;50.810;4.442;2022-09-13T10:57:53;11.82;;;4.32;;
23608;SDS011;11982;50.810;4.442;2022-09-13T11:05:42;7.75;;;3.45;;
23608;SDS011;11982;50.810;4.442;2022-09-13T11:28:10;6.30;;;3.20;;
23608;SDS011;11982;50.810;4.442;2022-09-13T11:31:03;5.93;;;3.10;;
23608;SDS011;11982;50.810;4.442;2022-09-13T11:39:22;7.13;;;3.20;;
23608;SDS011;11982;50.810;4.442;2022-09-13T11:53:10;7.50;;;3.25;;
23608;SDS011;11982;50.810;4.442;2022-09-13T11:56:02;6.22;;;3.05;;
23608;SDS011;11982;50.810;4.442;2022-09-13T12:01:28;4.53;;;2.88;;
23608;SDS011;11982;50.810;4.442;2022-09-13T12:04:02;5.82;;;3.25;;
23608;SDS011;11982;50.810;4.442;2022-09-13T12:09:09;8.30;;;3.53;;
23608;SDS011;11982;50.810;4.442;2022-09-13T12:11:42;6.53;;;3.30;;
23608;SDS011;11982;50.810;4.442;2022-09-13T12:14:14;8.48;;;3.30;;
23608;SDS011;11982;50.810;4.442;2022-09-13T12:16:44;6.35;;;3.40;;
23608;SDS011;11982;50.810;4.442;2022-09-13T12:21:42;11.48;;;3.40;;
23608;SDS011;11982;50.810;4.442;2022-09-13T12:24:13;6.70;;;3.08;;
23608;SDS011;11982;50.810;4.442;2022-09-13T12:27:06;5.05;;;3.35;;
23608;SDS011;11982;50.810;4.442;2022-09-13T12:29:56;8.30;;;3.35;;
23608;SDS011;11982;50.810;4.442;2022-09-13T12:32:25;6.68;;;3.17;;
23608;SDS011;11982;50.810;4.442;2022-09-13T12:34:57;10.13;;;3.70;;
23608;SDS011;11982;50.810;4.442;2022-09-13T12:49:19;8.20;;;3.85;;
23608;SDS011;11982;50.810;4.442;2022-09-13T13:06:15;4.75;;;3.53;;
23608;SDS011;11982;50.810;4.442;2022-09-13T13:08:52;6.82;;;3.72;;
23608;SDS011;11982;50.810;4.442;2022-09-13T13:11:24;7.60;;;3.20;;
23608;SDS011;11982;50.810;4.442;2022-09-13T13:13:58;8.23;;;3.42;;
23608;SDS011;11982;50.810;4.442;2022-09-13T13:16:33;6.85;;;3.35;;
23608;SDS011;11982;50.810;4.442;2022-09-13T13:19:25;7.47;;;3.55;;
23608;SDS011;11982;50.810;4.442;2022-09-13T13:27:51;9.05;;;3.75;;
23608;SDS011;11982;50.810;4.442;2022-09-13T13:33:26;8.93;;;3.90;;
23608;SDS011;11982;50.810;4.442;2022-09-13T13:35:51;8.32;;;4.05;;
23608;SDS011;11982;50.810;4.442;2022-09-13T13:38:36;9.20;;;3.65;;
23608;SDS011;11982;50.810;4.442;2022-09-13T13:41:06;10.30;;;3.47;;
23608;SDS011;11982;50.810;4.442;2022-09-13T13:43:52;6.10;;;3.80;;
23608;SDS011;11982;50.810;4.442;2022-09-13T13:48:46;6.60;;;3.60;;
23608;SDS011;11982;50.810;4.442;2022-09-13T13:54:03;7.43;;;4.32;;
23608;SDS011;11982;50.810;4.442;2022-09-13T13:56:49;8.32;;;4.13;;
23608;SDS011;11982;50.810;4.442;2022-09-13T14:01:44;5.30;;;4.22;;
23608;SDS011;11982;50.810;4.442;2022-09-13T14:20:26;6.93;;;5.07;;
23608;SDS011;11982;50.810;4.442;2022-09-13T14:23:09;7.60;;;4.78;;
23608;SDS011;11982;50.810;4.442;2022-09-13T14:25:40;10.95;;;5.00;;
23608;SDS011;11982;50.810;4.442;2022-09-13T14:28:07;5.55;;;4.90;;
23608;SDS011;11982;50.810;4.442;2022-09-13T14:30:37;10.55;;;5.00;;
23608;SDS011;11982;50.810;4.442;2022-09-13T14:33:03;9.35;;;5.15;;
23608;SDS011;11982;50.810;4.442;2022-09-13T14:35:34;11.60;;;5.32;;
23608;SDS011;11982;50.810;4.442;2022-09-13T14:38:11;10.13;;;5.43;;
23608;SDS011;11982;50.810;4.442;2022-09-13T14:40:47;12.98;;;5.88;;
23608;SDS011;11982;50.810;4.442;2022-09-13T14:43:18;8.85;;;5.63;;
23608;SDS011;11982;50.810;4.442;2022-09-13T14:45:49;11.82;;;5.90;;
23608;SDS011;11982;50.810;4.442;2022-09-13T14:50:46;12.93;;;5.60;;
23608;SDS011;11982;50.810;4.442;2022-09-13T14:53:17;9.65;;;5.47;;
23608;SDS011;11982;50.810;4.442;2022-09-13T14:56:05;8.73;;;5.43;;
23608;SDS011;11982;50.810;4.442;2022-09-13T14:58:45;12.57;;;6.80;;
23608;SDS011;11982;50.810;4.442;2022-09-13T15:01:14;8.05;;;5.75;;
23608;SDS011;11982;50.810;4.442;2022-09-13T15:03:46;11.30;;;5.65;;
23608;SDS011;11982;50.810;4.442;2022-09-13T15:06:23;7.20;;;4.95;;
23608;SDS011;11982;50.810;4.442;2022-09-13T15:08:52;10.85;;;5.68;;
23608;SDS011;11982;50.810;4.442;2022-09-13T15:11:29;7.35;;;5.13;;
23608;SDS011;11982;50.810;4.442;2022-09-13T15:14:01;9.32;;;5.63;;
23608;SDS011;11982;50.810;4.442;2022-09-13T15:16:49;9.93;;;5.57;;
23608;SDS011;11982;50.810;4.442;2022-09-13T15:21:48;7.13;;;5.30;;
23608;SDS011;11982;50.810;4.442;2022-09-13T15:24:26;6.70;;;4.90;;
23608;SDS011;11982;50.810;4.442;2022-09-13T15:27:02;10.82;;;5.95;;
23608;SDS011;11982;50.810;4.442;2022-09-13T15:29:29;9.45;;;6.07;;
23608;SDS011;11982;50.810;4.442;2022-09-13T15:31:59;10.63;;;6.70;;
23608;SDS011;11982;50.810;4.442;2022-09-13T15:34:26;8.75;;;5.55;;
23608;SDS011;11982;50.810;4.442;2022-09-13T15:39:23;11.80;;;6.20;;
23608;SDS011;11982;50.810;4.442;2022-09-13T15:41:51;9.30;;;6.32;;
23608;SDS011;11982;50.810;4.442;2022-09-13T15:44:17;11.73;;;6.07;;
23608;SDS011;11982;50.810;4.442;2022-09-13T15:46:47;11.05;;;6.05;;
23608;SDS011;11982;50.810;4.442;2022-09-13T15:49:17;8.15;;;6.22;;
23608;SDS011;11982;50.810;4.442;2022-09-13T15:51:44;8.55;;;5.93;;
23608;SDS011;11982;50.810;4.442;2022-09-13T15:54:11;12.95;;;5.78;;
23608;SDS011;11982;50.810;4.442;2022-09-13T15:56:40;8.43;;;6.15;;
23608;SDS011;11982;50.810;4.442;2022-09-13T15:59:11;12.60;;;6.70;;
23608;SDS011;11982;50.810;4.442;2022-09-13T16:01:38;9.70;;;6.05;;
23608;SDS011;11982;50.810;4.442;2022-09-13T16:04:04;10.43;;;6.03;;
23608;SDS011;11982;50.810;4.442;2022-09-13T16:06:30;11.35;;;6.60;;
23608;SDS011;11982;50.810;4.442;2022-09-13T16:08:56;11.45;;;6.85;;
23608;SDS011;11982;50.810;4.442;2022-09-13T16:11:24;11.55;;;6.85;;
23608;SDS011;11982;50.810;4.442;2022-09-13T16:13:49;13.88;;;6.65;;
23608;SDS011;11982;50.810;4.442;2022-09-13T16:16:15;8.27;;;6.20;;
23608;SDS011;11982;50.810;4.442;2022-09-13T16:18:41;9.75;;;6.60;;
23608;SDS011;11982;50.810;4.442;2022-09-13T16:21:06;7.15;;;6.05;;
23608;SDS011;11982;50.810;4.442;2022-09-13T16:23:32;9.65;;;6.95;;
23608;SDS011;11982;50.810;4.442;2022-09-13T16:25:58;9.88;;;6.20;;
23608;SDS011;11982;50.810;4.442;2022-09-13T16:28:24;10.65;;;6.32;;
23608;SDS011;11982;50.810;4.442;2022-09-13T16:30:50;9.32;;;6.57;;
23608;SDS011;11982;50.810;4.442;2022-09-13T16:33:16;10.00;;;6.57;;
23608;SDS011;11982;50.810;4.442;2022-09-13T16:35:41;13.73;;;7.95;;
23608;SDS011;11982;50.810;4.442;2022-09-13T16:38:08;13.15;;;7.50;;
23608;SDS011;11982;50.810;4.442;2022-09-13T16:40:34;17.42;;;8.07;;
23608;SDS011;11982;50.810;4.442;2022-09-13T16:43:06;14.50;;;8.50;;
23608;SDS011;11982;50.810;4.442;2022-09-13T16:45:33;14.98;;;8.10;;
23608;SDS011;11982;50.810;4.442;2022-09-13T16:47:59;18.98;;;8.77;;
23608;SDS011;11982;50.810;4.442;2022-09-13T16:50:24;14.98;;;8.13;;
23608;SDS011;11982;50.810;4.442;2022-09-13T16:52:50;11.32;;;7.30;;
23608;SDS011;11982;50.810;4.442;2022-09-13T16:55:15;10.65;;;7.63;;
23608;SDS011;11982;50.810;4.442;2022-09-13T16:57:41;11.70;;;7.82;;
23608;SDS011;11982;50.810;4.442;2022-09-13T17:00:09;17.55;;;9.15;;
23608;SDS011;11982;50.810;4.442;2022-09-13T17:02:36;12.45;;;8.80;;
23608;SDS011;11982;50.810;4.442;2022-09-13T17:05:02;10.50;;;8.05;;
23608;SDS011;11982;50.810;4.442;2022-09-13T17:07:31;16.23;;;8.55;;
23608;SDS011;11982;50.810;4.442;2022-09-13T17:09:57;12.27;;;8.30;;
23608;SDS011;11982;50.810;4.442;2022-09-13T17:12:23;16.80;;;9.20;;
23608;SDS011;11982;50.810;4.442;2022-09-13T17:14:49;15.43;;;9.00;;
23608;SDS011;11982;50.810;4.442;2022-09-13T17:17:15;15.95;;;9.20;;
23608;SDS011;11982;50.810;4.442;2022-09-13T17:19:41;14.57;;;9.73;;
23608;SDS011;11982;50.810;4.442;2022-09-13T17:22:08;19.13;;;10.02;;
23608;SDS011;11982;50.810;4.442;2022-09-13T17:24:35;15.35;;;9.75;;
23608;SDS011;11982;50.810;4.442;2022-09-13T17:27:02;15.02;;;9.73;;
23608;SDS011;11982;50.810;4.442;2022-09-13T17:29:30;17.27;;;9.73;;
23608;SDS011;11982;50.810;4.442;2022-09-13T17:31:57;15.52;;;9.43;;
23608;SDS011;11982;50.810;4.442;2022-09-13T17:34:27;14.77;;;9.20;;
23608;SDS011;11982;50.810;4.442;2022-09-13T17:36:54;15.40;;;9.15;;
23608;SDS011;11982;50.810;4.442;2022-09-13T17:39:21;15.40;;;9.63;;
23608;SDS011;11982;50.810;4.442;2022-09-13T17:41:47;14.82;;;9.85;;
23608;SDS011;11982;50.810;4.442;2022-09-13T17:44:13;12.35;;;9.13;;
23608;SDS011;11982;50.810;4.442;2022-09-13T17:46:40;15.57;;;10.30;;
23608;SDS011;11982;50.810;4.442;2022-09-13T17:49:06;13.30;;;9.13;;
23608;SDS011;11982;50.810;4.442;2022-09-13T17:51:32;18.90;;;9.50;;
23608;SDS011;11982;50.810;4.442;2022-09-13T17:53:59;15.75;;;10.57;;
23608;SDS011;11982;50.810;4.442;2022-09-13T17:56:27;21.00;;;10.70;;
23608;SDS011;11982;50.810;4.442;2022-09-13T17:58:55;22.10;;;11.32;;
23608;SDS011;11982;50.810;4.442;2022-09-13T18:01:27;17.58;;;10.38;;
23608;SDS011;11982;50.810;4.442;2022-09-13T18:03:53;18.05;;;10.68;;
23608;SDS011;11982;50.810;4.442;2022-09-13T18:06:19;14.10;;;8.98;;
23608;SDS011;11982;50.810;4.442;2022-09-13T18:08:45;16.65;;;10.63;;
23608;SDS011;11982;50.810;4.442;2022-09-13T18:11:13;16.95;;;9.85;;
23608;SDS011;11982;50.810;4.442;2022-09-13T18:13:42;17.65;;;9.88;;
23608;SDS011;11982;50.810;4.442;2022-09-13T18:16:19;16.77;;;9.85;;
23608;SDS011;11982;50.810;4.442;2022-09-13T18:18:47;15.90;;;9.90;;
23608;SDS011;11982;50.810;4.442;2022-09-13T18:21:14;21.27;;;10.90;;
23608;SDS011;11982;50.810;4.442;2022-09-13T18:23:43;15.80;;;10.25;;